sensor_id;sensor_type;location;lat;lon;timestamp;P1;durP1;ratioP1;P2;durP2;ratioP2
47009;SDS011;59230;54.164;-3.124;2023-06-22T00:01:46;14.57;;;10.02;;
47009;SDS011;59230;54.164;-3.124;2023-06-22T00:04:12;13.30;;;9.02;;
47009;SDS011;59230;54.164;-3.124;2023-06-22T00:06:37;12.45;;;9.63;;
47009;SDS011;59230;54.164;-3.124;2023-06-22T00:09:03;19.20;;;9.52;;
47009;SDS011;59230;54.164;-3.124;2023-06-22T00:11:28;21.95;;;10.65;;
47009;SDS011;59230;54.164;-3.124;2023-06-22T00:13:54;20.77;;;10.90;;
47009;SDS011;59230;54.164;-3.124;2023-06-22T00:16:19;18.77;;;10.93;;
47009;SDS011;59230;54.164;-3.124;2023-06-22T00:18:45;23.98;;;11.48;;
47009;SDS011;59230;54.164;-3.124;2023-06-22T00:21:12;20.25;;;10.63;;
47009;SDS011;59230;54.164;-3.124;2023-06-22T00:23:38;17.15;;;11.55;;
47009;SDS011;59230;54.164;-3.124;2023-06-22T00:26:03;19.55;;;11.50;;
47009;SDS011;59230;54.164;-3.124;2023-06-22T00:28:29;17.08;;;10.95;;
47009;SDS011;59230;54.164;-3.124;2023-06-22T00:30:55;20.38;;;10.90;;
47009;SDS011;59230;54.164;-3.124;2023-06-22T00:33:21;14.68;;;11.23;;
47009;SDS011;59230;54.164;-3.124;2023-06-22T00:35:46;16.13;;;10.48;;
47009;SDS011;59230;54.164;-3.124;2023-06-22T00:38:11;16.67;;;10.27;;
47009;SDS011;59230;54.164;-3.124;2023-06-22T00:40:37;15.15;;;10.18;;
47009;SDS011;59230;54.164;-3.124;2023-06-22T00:43:03;23.10;;;11.27;;
47009;SDS011;59230;54.164;-3.124;2023-06-22T00:45:28;15.18;;;10.95;;
47009;SDS011;59230;54.164;-3.124;2023-06-22T00:47:56;17.83;;;11.07;;
47009;SDS011;59230;54.164;-3.124;2023-06-22T00:50:23;16.73;;;10.50;;
47009;SDS011;59230;54.164;-3.124;2023-06-22T00:52:50;22.02;;;11.48;;
47009;SDS011;59230;54.164;-3.124;2023-06-22T00:55:17;18.13;;;10.48;;
47009;SDS011;59230;54.164;-3.124;2023-06-22T00:57:45;20.70;;;11.38;;
47009;SDS011;59230;54.164;-3.124;2023-06-22T01:00:11;17.42;;;11.45;;
47009;SDS011;59230;54.164;-3.124;2023-06-22T01:02:42;18.77;;;9.85;;
47009;SDS011;59230;54.164;-3.124;2023-06-22T01:05:10;14.02;;;10.55;;
47009;SDS011;59230;54.164;-3.124;2023-06-22T01:10:36;13.35;;;9.75;;
47009;SDS011;59230;54.164;-3.124;2023-06-22T01:13:16;17.10;;;11.07;;
47009;SDS011;59230;54.164;-3.124;2023-06-22T01:16:00;18.17;;;10.02;;
47009;SDS011;59230;54.164;-3.124;2023-06-22T01:18:28;18.75;;;10.70;;
47009;SDS011;59230;54.164;-3.124;2023-06-22T01:20:56;15.75;;;10.20;;
47009;SDS011;59230;54.164;-3.124;2023-06-22T01:25:57;18.20;;;9.68;;
47009;SDS011;59230;54.164;-3.124;2023-06-22T01:31:16;17.83;;;9.57;;
47009;SDS011;59230;54.164;-3.124;2023-06-22T01:33:44;17.90;;;10.32;;
47009;SDS011;59230;54.164;-3.124;2023-06-22T01:36:12;21.17;;;10.23;;
47009;SDS011;59230;54.164;-3.124;2023-06-22T01:38:38;16.42;;;10.05;;
47009;SDS011;59230;54.164;-3.124;2023-06-22T01:41:04;19.23;;;10.85;;
47009;SDS011;59230;54.164;-3.124;2023-06-22T01:43:29;21.55;;;11.98;;
47009;SDS011;59230;54.164;-3.124;2023-06-22T01:45:55;20.85;;;12.75;;
47009;SDS011;59230;54.164;-3.124;2023-06-22T01:48:22;24.90;;;11.80;;
47009;SDS011;59230;54.164;-3.124;2023-06-22T01:50:48;15.95;;;11.70;;
47009;SDS011;59230;54.164;-3.124;2023-06-22T01:53:14;24.85;;;12.63;;
47009;SDS011;59230;54.164;-3.124;2023-06-22T01:55:39;21.92;;;12.95;;
47009;SDS011;59230;54.164;-3.124;2023-06-22T01:58:05;23.45;;;12.90;;
47009;SDS011;59230;54.164;-3.124;2023-06-22T02:00:31;25.15;;;12.80;;
47009;SDS011;59230;54.164;-3.124;2023-06-22T02:02:59;20.90;;;14.52;;
47009;SDS011;59230;54.164;-3.124;2023-06-22T02:05:33;39.67;;;16.38;;
47009;SDS011;59230;54.164;-3.124;2023-06-22T02:10:37;27.48;;;15.43;;
47009;SDS011;59230;54.164;-3.124;2023-06-22T02:13:06;24.38;;;14.85;;
47009;SDS011;59230;54.164;-3.124;2023-06-22T02:15:32;25.35;;;15.18;;
47009;SDS011;59230;54.164;-3.124;2023-06-22T02:17:58;32.83;;;14.40;;
47009;SDS011;59230;54.164;-3.124;2023-06-22T02:20:23;21.65;;;13.40;;
47009;SDS011;59230;54.164;-3.124;2023-06-22T02:22:49;25.52;;;14.85;;
47009;SDS011;59230;54.164;-3.124;2023-06-22T02:25:15;30.75;;;15.18;;
47009;SDS011;59230;54.164;-3.124;2023-06-22T02:27:40;32.17;;;16.35;;
47009;SDS011;59230;54.164;-3.124;2023-06-22T02:30:09;35.70;;;19.60;;
47009;SDS011;59230;54.164;-3.124;2023-06-22T02:32:35;26.55;;;18.08;;
47009;SDS011;59230;54.164;-3.124;2023-06-22T02:35:00;30.75;;;17.35;;
47009;SDS011;59230;54.164;-3.124;2023-06-22T02:37:29;30.23;;;17.80;;
47009;SDS011;59230;54.164;-3.124;2023-06-22T02:39:55;24.08;;;16.08;;
47009;SDS011;59230;54.164;-3.124;2023-06-22T02:42:21;23.15;;;16.98;;
47009;SDS011;59230;54.164;-3.124;2023-06-22T02:44:47;27.80;;;16.25;;
47009;SDS011;59230;54.164;-3.124;2023-06-22T02:47:12;24.83;;;16.42;;
47009;SDS011;59230;54.164;-3.124;2023-06-22T02:49:38;29.70;;;16.73;;
47009;SDS011;59230;54.164;-3.124;2023-06-22T02:52:03;30.17;;;15.68;;
47009;SDS011;59230;54.164;-3.124;2023-06-22T02:54:29;25.70;;;15.52;;
47009;SDS011;59230;54.164;-3.124;2023-06-22T02:56:55;26.60;;;15.75;;
47009;SDS011;59230;54.164;-3.124;2023-06-22T02:59:20;21.70;;;14.23;;
47009;SDS011;59230;54.164;-3.124;2023-06-22T03:01:51;22.70;;;15.65;;
47009;SDS011;59230;54.164;-3.124;2023-06-22T03:04:17;23.35;;;15.80;;
47009;SDS011;59230;54.164;-3.124;2023-06-22T03:06:43;22.02;;;15.10;;
47009;SDS011;59230;54.164;-3.124;2023-06-22T03:09:08;30.05;;;16.58;;
47009;SDS011;59230;54.164;-3.124;2023-06-22T03:11:34;29.27;;;17.85;;
47009;SDS011;59230;54.164;-3.124;2023-06-22T03:14:00;32.65;;;17.73;;
47009;SDS011;59230;54.164;-3.124;2023-06-22T03:16:26;23.42;;;15.95;;
47009;SDS011;59230;54.164;-3.124;2023-06-22T03:18:52;28.10;;;16.50;;
47009;SDS011;59230;54.164;-3.124;2023-06-22T03:21:22;32.25;;;17.08;;
47009;SDS011;59230;54.164;-3.124;2023-06-22T03:23:48;32.50;;;18.08;;
47009;SDS011;59230;54.164;-3.124;2023-06-22T03:26:16;29.42;;;18.05;;
47009;SDS011;59230;54.164;-3.124;2023-06-22T03:28:41;35.65;;;21.65;;
47009;SDS011;59230;54.164;-3.124;2023-06-22T03:31:07;28.58;;;16.70;;
47009;SDS011;59230;54.164;-3.124;2023-06-22T03:33:33;37.60;;;22.42;;
47009;SDS011;59230;54.164;-3.124;2023-06-22T03:35:58;43.95;;;24.42;;
47009;SDS011;59230;54.164;-3.124;2023-06-22T03:38:24;41.85;;;25.38;;
47009;SDS011;59230;54.164;-3.124;2023-06-22T03:40:49;41.78;;;22.50;;
47009;SDS011;59230;54.164;-3.124;2023-06-22T03:43:15;43.42;;;23.65;;
47009;SDS011;59230;54.164;-3.124;2023-06-22T03:45:40;59.92;;;27.10;;
47009;SDS011;59230;54.164;-3.124;2023-06-22T03:48:06;36.47;;;18.63;;
47009;SDS011;59230;54.164;-3.124;2023-06-22T03:50:31;42.22;;;17.65;;
47009;SDS011;59230;54.164;-3.124;2023-06-22T03:52:56;35.88;;;15.68;;
47009;SDS011;59230;54.164;-3.124;2023-06-22T03:55:22;18.98;;;11.75;;
47009;SDS011;59230;54.164;-3.124;2023-06-22T03:57:47;14.00;;;9.50;;
47009;SDS011;59230;54.164;-3.124;2023-06-22T04:00:13;14.40;;;10.05;;
47009;SDS011;59230;54.164;-3.124;2023-06-22T04:02:40;16.65;;;10.80;;
47009;SDS011;59230;54.164;-3.124;2023-06-22T04:05:06;19.88;;;12.90;;
47009;SDS011;59230;54.164;-3.124;2023-06-22T04:07:33;28.35;;;18.05;;
47009;SDS011;59230;54.164;-3.124;2023-06-22T04:09:59;37.70;;;20.38;;
47009;SDS011;59230;54.164;-3.124;2023-06-22T04:12:24;34.60;;;20.33;;
47009;SDS011;59230;54.164;-3.124;2023-06-22T04:14:49;33.67;;;20.30;;
47009;SDS011;59230;54.164;-3.124;2023-06-22T04:17:15;37.13;;;20.27;;
47009;SDS011;59230;54.164;-3.124;2023-06-22T04:19:40;33.45;;;19.73;;
47009;SDS011;59230;54.164;-3.124;2023-06-22T04:22:06;28.42;;;18.58;;
47009;SDS011;59230;54.164;-3.124;2023-06-22T04:24:32;29.65;;;18.98;;
47009;SDS011;59230;54.164;-3.124;2023-06-22T04:26:58;32.30;;;19.48;;
47009;SDS011;59230;54.164;-3.124;2023-06-22T04:29:27;35.20;;;19.13;;
47009;SDS011;59230;54.164;-3.124;2023-06-22T04:31:55;30.13;;;18.55;;
47009;SDS011;59230;54.164;-3.124;2023-06-22T04:34:23;29.05;;;16.73;;
47009;SDS011;59230;54.164;-3.124;2023-06-22T04:36:51;30.73;;;16.70;;
47009;SDS011;59230;54.164;-3.124;2023-06-22T04:39:16;23.95;;;14.70;;
47009;SDS011;59230;54.164;-3.124;2023-06-22T04:41:42;21.23;;;13.32;;
47009;SDS011;59230;54.164;-3.124;2023-06-22T04:44:14;19.25;;;12.80;;
47009;SDS011;59230;54.164;-3.124;2023-06-22T04:46:50;23.30;;;11.90;;
47009;SDS011;59230;54.164;-3.124;2023-06-22T04:49:20;16.63;;;12.23;;
47009;SDS011;59230;54.164;-3.124;2023-06-22T04:51:46;15.80;;;12.05;;
47009;SDS011;59230;54.164;-3.124;2023-06-22T04:54:11;19.02;;;13.18;;
47009;SDS011;59230;54.164;-3.124;2023-06-22T04:56:37;23.48;;;15.13;;
47009;SDS011;59230;54.164;-3.124;2023-06-22T04:59:02;17.88;;;12.57;;
47009;SDS011;59230;54.164;-3.124;2023-06-22T05:01:28;21.48;;;13.55;;
47009;SDS011;59230;54.164;-3.124;2023-06-22T05:03:56;32.20;;;15.43;;
47009;SDS011;59230;54.164;-3.124;2023-06-22T05:06:24;21.95;;;14.38;;
47009;SDS011;59230;54.164;-3.124;2023-06-22T05:08:53;27.80;;;14.57;;
47009;SDS011;59230;54.164;-3.124;2023-06-22T05:11:23;25.70;;;13.82;;
47009;SDS011;59230;54.164;-3.124;2023-06-22T05:13:51;23.20;;;14.05;;
47009;SDS011;59230;54.164;-3.124;2023-06-22T05:16:17;25.60;;;14.95;;
47009;SDS011;59230;54.164;-3.124;2023-06-22T05:18:48;23.58;;;14.25;;
47009;SDS011;59230;54.164;-3.124;2023-06-22T05:21:13;24.08;;;14.20;;
47009;SDS011;59230;54.164;-3.124;2023-06-22T05:23:38;28.60;;;13.77;;
47009;SDS011;59230;54.164;-3.124;2023-06-22T05:26:04;20.98;;;15.60;;
47009;SDS011;59230;54.164;-3.124;2023-06-22T05:28:29;27.02;;;14.15;;
47009;SDS011;59230;54.164;-3.124;2023-06-22T05:30:55;25.50;;;14.52;;
47009;SDS011;59230;54.164;-3.124;2023-06-22T05:33:20;20.92;;;13.48;;
47009;SDS011;59230;54.164;-3.124;2023-06-22T05:35:46;21.27;;;14.70;;
47009;SDS011;59230;54.164;-3.124;2023-06-22T05:38:12;25.13;;;14.30;;
47009;SDS011;59230;54.164;-3.124;2023-06-22T05:40:37;20.50;;;13.02;;
47009;SDS011;59230;54.164;-3.124;2023-06-22T05:43:02;20.13;;;12.57;;
47009;SDS011;59230;54.164;-3.124;2023-06-22T05:45:28;21.48;;;11.43;;
47009;SDS011;59230;54.164;-3.124;2023-06-22T05:47:53;18.58;;;12.60;;
47009;SDS011;59230;54.164;-3.124;2023-06-22T05:50:19;24.67;;;12.38;;
47009;SDS011;59230;54.164;-3.124;2023-06-22T05:52:44;16.73;;;11.60;;
47009;SDS011;59230;54.164;-3.124;2023-06-22T05:55:10;21.67;;;12.25;;
47009;SDS011;59230;54.164;-3.124;2023-06-22T05:57:35;18.08;;;11.65;;
47009;SDS011;59230;54.164;-3.124;2023-06-22T06:00:00;18.38;;;11.35;;
47009;SDS011;59230;54.164;-3.124;2023-06-22T06:02:26;19.73;;;11.95;;
47009;SDS011;59230;54.164;-3.124;2023-06-22T06:04:51;19.35;;;12.35;;
47009;SDS011;59230;54.164;-3.124;2023-06-22T06:07:17;19.58;;;11.82;;
47009;SDS011;59230;54.164;-3.124;2023-06-22T06:09:43;17.30;;;12.27;;
47009;SDS011;59230;54.164;-3.124;2023-06-22T06:12:09;20.17;;;11.70;;
47009;SDS011;59230;54.164;-3.124;2023-06-22T06:14:34;15.77;;;10.18;;
47009;SDS011;59230;54.164;-3.124;2023-06-22T06:16:59;16.45;;;10.38;;
47009;SDS011;59230;54.164;-3.124;2023-06-22T06:19:25;17.40;;;9.85;;
47009;SDS011;59230;54.164;-3.124;2023-06-22T06:21:50;15.35;;;10.07;;
47009;SDS011;59230;54.164;-3.124;2023-06-22T06:24:16;16.38;;;10.43;;
47009;SDS011;59230;54.164;-3.124;2023-06-22T06:26:41;18.13;;;10.50;;
47009;SDS011;59230;54.164;-3.124;2023-06-22T06:29:07;20.42;;;9.73;;
47009;SDS011;59230;54.164;-3.124;2023-06-22T06:31:32;19.80;;;9.85;;
47009;SDS011;59230;54.164;-3.124;2023-06-22T06:33:58;16.92;;;9.10;;
47009;SDS011;59230;54.164;-3.124;2023-06-22T06:36:23;15.00;;;9.80;;
47009;SDS011;59230;54.164;-3.124;2023-06-22T06:38:49;14.60;;;9.40;;
47009;SDS011;59230;54.164;-3.124;2023-06-22T06:41:15;13.00;;;9.07;;
47009;SDS011;59230;54.164;-3.124;2023-06-22T06:43:40;16.77;;;9.30;;
47009;SDS011;59230;54.164;-3.124;2023-06-22T06:46:08;15.48;;;8.70;;
47009;SDS011;59230;54.164;-3.124;2023-06-22T06:48:34;10.68;;;7.95;;
47009;SDS011;59230;54.164;-3.124;2023-06-22T06:50:59;10.80;;;6.25;;
47009;SDS011;59230;54.164;-3.124;2023-06-22T06:53:24;15.52;;;7.93;;
47009;SDS011;59230;54.164;-3.124;2023-06-22T06:55:50;12.43;;;8.02;;
47009;SDS011;59230;54.164;-3.124;2023-06-22T06:58:15;9.82;;;7.63;;
47009;SDS011;59230;54.164;-3.124;2023-06-22T07:00:41;11.32;;;7.57;;
47009;SDS011;59230;54.164;-3.124;2023-06-22T07:03:08;11.88;;;7.47;;
47009;SDS011;59230;54.164;-3.124;2023-06-22T07:05:34;11.70;;;7.15;;
47009;SDS011;59230;54.164;-3.124;2023-06-22T07:08:00;16.90;;;7.97;;
47009;SDS011;59230;54.164;-3.124;2023-06-22T07:10:26;12.27;;;7.53;;
47009;SDS011;59230;54.164;-3.124;2023-06-22T07:12:51;12.05;;;7.43;;
47009;SDS011;59230;54.164;-3.124;2023-06-22T07:15:17;9.90;;;6.40;;
47009;SDS011;59230;54.164;-3.124;2023-06-22T07:17:43;15.50;;;9.52;;
47009;SDS011;59230;54.164;-3.124;2023-06-22T07:20:09;13.18;;;8.35;;
47009;SDS011;59230;54.164;-3.124;2023-06-22T07:22:38;14.40;;;7.50;;
47009;SDS011;59230;54.164;-3.124;2023-06-22T07:25:04;11.20;;;8.18;;
47009;SDS011;59230;54.164;-3.124;2023-06-22T07:27:35;15.50;;;8.07;;
47009;SDS011;59230;54.164;-3.124;2023-06-22T07:30:07;12.23;;;7.32;;
47009;SDS011;59230;54.164;-3.124;2023-06-22T07:32:33;14.68;;;8.45;;
47009;SDS011;59230;54.164;-3.124;2023-06-22T07:34:59;6.43;;;3.95;;
47009;SDS011;59230;54.164;-3.124;2023-06-22T07:37:24;7.65;;;3.30;;
47009;SDS011;59230;54.164;-3.124;2023-06-22T07:39:52;12.77;;;4.20;;
47009;SDS011;59230;54.164;-3.124;2023-06-22T07:42:18;8.07;;;3.28;;
47009;SDS011;59230;54.164;-3.124;2023-06-22T07:44:44;7.65;;;2.72;;
47009;SDS011;59230;54.164;-3.124;2023-06-22T07:47:09;8.45;;;3.33;;
47009;SDS011;59230;54.164;-3.124;2023-06-22T07:49:35;6.32;;;3.75;;
47009;SDS011;59230;54.164;-3.124;2023-06-22T07:52:00;6.43;;;3.22;;
47009;SDS011;59230;54.164;-3.124;2023-06-22T07:54:26;9.65;;;3.80;;
